sensor_id;sensor_type;location;lat;lon;timestamp;temperature;humidity
65036;DHT22;51603;49.300;8.880;2023-05-15T00:01:17;11.80;99.90
65036;DHT22;51603;49.300;8.880;2023-05-15T00:03:43;11.80;99.90
65036;DHT22;51603;49.300;8.880;2023-05-15T00:06:08;11.80;99.90
65036;DHT22;51603;49.300;8.880;2023-05-15T00:08:34;11.80;99.90
65036;DHT22;51603;49.300;8.880;2023-05-15T00:10:59;11.80;99.90
65036;DHT22;51603;49.300;8.880;2023-05-15T00:13:25;11.80;99.90
65036;DHT22;51603;49.300;8.880;2023-05-15T00:15:51;11.80;99.90
65036;DHT22;51603;49.300;8.880;2023-05-15T00:18:16;11.70;99.90
65036;DHT22;51603;49.300;8.880;2023-05-15T00:20:42;11.80;99.90
65036;DHT22;51603;49.300;8.880;2023-05-15T00:23:08;11.70;99.90
65036;DHT22;51603;49.300;8.880;2023-05-15T00:25:34;11.70;99.90
65036;DHT22;51603;49.300;8.880;2023-05-15T00:27:59;11.60;99.90
65036;DHT22;51603;49.300;8.880;2023-05-15T00:30:25;11.60;99.90
65036;DHT22;51603;49.300;8.880;2023-05-15T00:32:50;11.50;99.90
65036;DHT22;51603;49.300;8.880;2023-05-15T00:35:16;11.50;99.90
65036;DHT22;51603;49.300;8.880;2023-05-15T00:37:42;11.50;99.90
65036;DHT22;51603;49.300;8.880;2023-05-15T00:40:09;11.50;99.90
65036;DHT22;51603;49.300;8.880;2023-05-15T00:42:35;11.60;99.90
65036;DHT22;51603;49.300;8.880;2023-05-15T00:45:01;11.60;99.90
65036;DHT22;51603;49.300;8.880;2023-05-15T00:47:28;11.60;99.90
65036;DHT22;51603;49.300;8.880;2023-05-15T00:49:54;11.60;99.90
65036;DHT22;51603;49.300;8.880;2023-05-15T00:52:21;11.60;99.90
65036;DHT22;51603;49.300;8.880;2023-05-15T00:54:47;11.60;99.90
65036;DHT22;51603;49.300;8.880;2023-05-15T00:57:13;11.60;99.90
65036;DHT22;51603;49.300;8.880;2023-05-15T00:59:39;11.60;99.90
65036;DHT22;51603;49.300;8.880;2023-05-15T01:02:05;11.50;99.90
65036;DHT22;51603;49.300;8.880;2023-05-15T01:04:30;11.50;99.90
65036;DHT22;51603;49.300;8.880;2023-05-15T01:06:56;11.50;99.90
65036;DHT22;51603;49.300;8.880;2023-05-15T01:09:26;11.50;99.90
65036;DHT22;51603;49.300;8.880;2023-05-15T01:11:56;11.60;99.90
65036;DHT22;51603;49.300;8.880;2023-05-15T01:14:23;11.50;99.90
65036;DHT22;51603;49.300;8.880;2023-05-15T01:16:49;11.50;99.90
65036;DHT22;51603;49.300;8.880;2023-05-15T01:19:15;11.50;99.90
65036;DHT22;51603;49.300;8.880;2023-05-15T01:21:57;11.50;99.90
65036;DHT22;51603;49.300;8.880;2023-05-15T01:24:55;11.50;99.90
65036;DHT22;51603;49.300;8.880;2023-05-15T01:30:09;11.50;99.90
65036;DHT22;51603;49.300;8.880;2023-05-15T01:35:12;11.40;99.90
65036;DHT22;51603;49.300;8.880;2023-05-15T01:37:41;11.40;99.90
65036;DHT22;51603;49.300;8.880;2023-05-15T01:40:09;11.30;99.90
65036;DHT22;51603;49.300;8.880;2023-05-15T01:42:40;11.40;99.90
65036;DHT22;51603;49.300;8.880;2023-05-15T01:45:09;11.40;99.90
65036;DHT22;51603;49.300;8.880;2023-05-15T01:47:46;11.50;99.90
65036;DHT22;51603;49.300;8.880;2023-05-15T01:50:14;11.50;99.90
65036;DHT22;51603;49.300;8.880;2023-05-15T01:52:42;11.40;99.90
65036;DHT22;51603;49.300;8.880;2023-05-15T01:55:09;11.40;99.90
65036;DHT22;51603;49.300;8.880;2023-05-15T01:57:37;11.40;99.90
65036;DHT22;51603;49.300;8.880;2023-05-15T02:00:03;11.50;99.90
65036;DHT22;51603;49.300;8.880;2023-05-15T02:02:29;11.40;99.90
65036;DHT22;51603;49.300;8.880;2023-05-15T02:04:56;11.40;99.90
65036;DHT22;51603;49.300;8.880;2023-05-15T02:07:22;11.40;99.90
65036;DHT22;51603;49.300;8.880;2023-05-15T02:09:51;11.50;99.90
65036;DHT22;51603;49.300;8.880;2023-05-15T02:12:17;11.50;99.90
65036;DHT22;51603;49.300;8.880;2023-05-15T02:14:44;11.30;99.90
65036;DHT22;51603;49.300;8.880;2023-05-15T02:17:11;11.30;99.90
65036;DHT22;51603;49.300;8.880;2023-05-15T02:19:36;11.30;99.90
65036;DHT22;51603;49.300;8.880;2023-05-15T02:22:02;11.30;99.90
65036;DHT22;51603;49.300;8.880;2023-05-15T02:24:27;11.40;99.90
65036;DHT22;51603;49.300;8.880;2023-05-15T02:27:21;11.40;99.90
65036;DHT22;51603;49.300;8.880;2023-05-15T02:30:10;11.30;99.90
65036;DHT22;51603;49.300;8.880;2023-05-15T02:37:52;11.20;99.90
65036;DHT22;51603;49.300;8.880;2023-05-15T02:40:19;11.20;99.90
65036;DHT22;51603;49.300;8.880;2023-05-15T02:42:49;11.20;99.90
65036;DHT22;51603;49.300;8.880;2023-05-15T02:45:17;11.10;99.90
65036;DHT22;51603;49.300;8.880;2023-05-15T02:47:43;11.10;99.90
65036;DHT22;51603;49.300;8.880;2023-05-15T02:50:09;11.10;99.90
65036;DHT22;51603;49.300;8.880;2023-05-15T02:52:35;11.00;99.90
65036;DHT22;51603;49.300;8.880;2023-05-15T02:55:01;11.00;99.90
65036;DHT22;51603;49.300;8.880;2023-05-15T02:57:26;11.00;99.90
65036;DHT22;51603;49.300;8.880;2023-05-15T02:59:53;11.00;99.90
65036;DHT22;51603;49.300;8.880;2023-05-15T03:02:19;11.00;99.90
65036;DHT22;51603;49.300;8.880;2023-05-15T03:04:44;11.10;99.90
65036;DHT22;51603;49.300;8.880;2023-05-15T03:07:10;11.00;99.90
65036;DHT22;51603;49.300;8.880;2023-05-15T03:09:36;10.90;99.90
65036;DHT22;51603;49.300;8.880;2023-05-15T03:12:01;10.90;99.90
65036;DHT22;51603;49.300;8.880;2023-05-15T03:14:27;10.90;99.90
65036;DHT22;51603;49.300;8.880;2023-05-15T03:16:52;10.80;99.90
65036;DHT22;51603;49.300;8.880;2023-05-15T03:19:18;10.70;99.90
65036;DHT22;51603;49.300;8.880;2023-05-15T03:21:43;10.70;99.90
65036;DHT22;51603;49.300;8.880;2023-05-15T03:24:09;10.70;99.90
65036;DHT22;51603;49.300;8.880;2023-05-15T03:26:34;10.60;99.90
65036;DHT22;51603;49.300;8.880;2023-05-15T03:29:00;10.60;99.90
65036;DHT22;51603;49.300;8.880;2023-05-15T03:31:26;10.50;99.90
65036;DHT22;51603;49.300;8.880;2023-05-15T03:33:52;10.50;99.90
65036;DHT22;51603;49.300;8.880;2023-05-15T03:36:17;10.50;99.90
65036;DHT22;51603;49.300;8.880;2023-05-15T03:38:43;10.50;99.90
65036;DHT22;51603;49.300;8.880;2023-05-15T03:41:09;10.50;99.90
65036;DHT22;51603;49.300;8.880;2023-05-15T03:43:35;10.50;99.90
65036;DHT22;51603;49.300;8.880;2023-05-15T03:46:00;10.40;99.90
65036;DHT22;51603;49.300;8.880;2023-05-15T03:48:26;10.30;99.90
65036;DHT22;51603;49.300;8.880;2023-05-15T03:50:51;10.30;99.90
65036;DHT22;51603;49.300;8.880;2023-05-15T03:53:17;10.20;99.90
65036;DHT22;51603;49.300;8.880;2023-05-15T03:55:43;10.20;99.90
65036;DHT22;51603;49.300;8.880;2023-05-15T03:58:08;10.20;99.90
65036;DHT22;51603;49.300;8.880;2023-05-15T04:00:34;10.40;99.90
65036;DHT22;51603;49.300;8.880;2023-05-15T04:03:00;10.40;99.90
65036;DHT22;51603;49.300;8.880;2023-05-15T04:05:26;10.50;99.90
65036;DHT22;51603;49.300;8.880;2023-05-15T04:07:51;10.50;99.90
65036;DHT22;51603;49.300;8.880;2023-05-15T04:10:18;10.60;99.90
65036;DHT22;51603;49.300;8.880;2023-05-15T04:12:43;10.60;99.90
65036;DHT22;51603;49.300;8.880;2023-05-15T04:17:43;10.60;99.90
65036;DHT22;51603;49.300;8.880;2023-05-15T04:20:09;10.60;99.90
65036;DHT22;51603;49.300;8.880;2023-05-15T04:22:36;10.50;99.90
65036;DHT22;51603;49.300;8.880;2023-05-15T04:25:01;10.40;99.90
65036;DHT22;51603;49.300;8.880;2023-05-15T04:27:27;10.50;99.90
65036;DHT22;51603;49.300;8.880;2023-05-15T04:29:53;10.50;99.90
65036;DHT22;51603;49.300;8.880;2023-05-15T04:32:18;10.50;99.90
65036;DHT22;51603;49.300;8.880;2023-05-15T04:34:44;10.50;99.90
65036;DHT22;51603;49.300;8.880;2023-05-15T04:37:10;10.50;99.90
65036;DHT22;51603;49.300;8.880;2023-05-15T04:39:36;10.50;99.90
65036;DHT22;51603;49.300;8.880;2023-05-15T04:42:02;10.60;99.90
65036;DHT22;51603;49.300;8.880;2023-05-15T04:44:28;10.60;99.90
65036;DHT22;51603;49.300;8.880;2023-05-15T04:46:53;10.60;99.90
65036;DHT22;51603;49.300;8.880;2023-05-15T04:49:19;10.60;99.90
65036;DHT22;51603;49.300;8.880;2023-05-15T04:51:44;10.60;99.90
65036;DHT22;51603;49.300;8.880;2023-05-15T04:54:10;10.70;99.90
65036;DHT22;51603;49.300;8.880;2023-05-15T04:56:35;10.70;99.90
65036;DHT22;51603;49.300;8.880;2023-05-15T04:59:01;10.80;99.90
65036;DHT22;51603;49.300;8.880;2023-05-15T05:01:28;10.80;99.90
65036;DHT22;51603;49.300;8.880;2023-05-15T05:03:53;10.80;99.90
65036;DHT22;51603;49.300;8.880;2023-05-15T05:06:19;10.80;99.90
65036;DHT22;51603;49.300;8.880;2023-05-15T05:08:45;10.90;99.90
65036;DHT22;51603;49.300;8.880;2023-05-15T05:11:10;10.90;99.90
65036;DHT22;51603;49.300;8.880;2023-05-15T05:13:36;10.90;99.90
65036;DHT22;51603;49.300;8.880;2023-05-15T05:16:01;11.00;99.90
65036;DHT22;51603;49.300;8.880;2023-05-15T05:18:28;11.00;99.90
65036;DHT22;51603;49.300;8.880;2023-05-15T05:21:01;11.00;99.90
65036;DHT22;51603;49.300;8.880;2023-05-15T05:23:27;11.00;99.90
65036;DHT22;51603;49.300;8.880;2023-05-15T05:25:53;11.10;99.90
65036;DHT22;51603;49.300;8.880;2023-05-15T05:28:18;11.20;99.90
65036;DHT22;51603;49.300;8.880;2023-05-15T05:30:45;11.20;99.90
65036;DHT22;51603;49.300;8.880;2023-05-15T05:33:11;11.20;99.90
65036;DHT22;51603;49.300;8.880;2023-05-15T05:35:36;11.20;99.90
65036;DHT22;51603;49.300;8.880;2023-05-15T05:38:02;11.20;99.90
65036;DHT22;51603;49.300;8.880;2023-05-15T05:40:27;11.30;99.90
65036;DHT22;51603;49.300;8.880;2023-05-15T05:42:53;11.30;99.90
65036;DHT22;51603;49.300;8.880;2023-05-15T05:45:19;11.40;99.90
65036;DHT22;51603;49.300;8.880;2023-05-15T05:47:45;11.50;99.90
65036;DHT22;51603;49.300;8.880;2023-05-15T05:50:10;11.50;99.90
65036;DHT22;51603;49.300;8.880;2023-05-15T05:52:36;11.60;99.90
65036;DHT22;51603;49.300;8.880;2023-05-15T05:55:01;11.60;99.90
65036;DHT22;51603;49.300;8.880;2023-05-15T05:57:27;11.60;99.90
65036;DHT22;51603;49.300;8.880;2023-05-15T05:59:53;11.70;99.90
65036;DHT22;51603;49.300;8.880;2023-05-15T06:02:18;11.80;99.90
65036;DHT22;51603;49.300;8.880;2023-05-15T06:04:44;11.80;99.90
65036;DHT22;51603;49.300;8.880;2023-05-15T06:07:10;11.80;99.90
65036;DHT22;51603;49.300;8.880;2023-05-15T06:09:36;11.90;99.90
65036;DHT22;51603;49.300;8.880;2023-05-15T06:12:02;12.00;99.90
65036;DHT22;51603;49.300;8.880;2023-05-15T06:14:29;12.00;99.90
65036;DHT22;51603;49.300;8.880;2023-05-15T06:16:55;12.00;99.90
65036;DHT22;51603;49.300;8.880;2023-05-15T06:19:20;12.00;99.90
65036;DHT22;51603;49.300;8.880;2023-05-15T06:21:46;12.00;99.90
65036;DHT22;51603;49.300;8.880;2023-05-15T06:24:13;12.00;99.90
65036;DHT22;51603;49.300;8.880;2023-05-15T06:26:39;12.00;99.90
65036;DHT22;51603;49.300;8.880;2023-05-15T06:29:04;12.10;99.90
65036;DHT22;51603;49.300;8.880;2023-05-15T06:31:30;12.20;99.90
65036;DHT22;51603;49.300;8.880;2023-05-15T06:33:55;12.40;99.90
65036;DHT22;51603;49.300;8.880;2023-05-15T06:36:21;12.50;99.90
65036;DHT22;51603;49.300;8.880;2023-05-15T06:38:46;12.60;99.90
65036;DHT22;51603;49.300;8.880;2023-05-15T06:41:12;12.70;99.90
65036;DHT22;51603;49.300;8.880;2023-05-15T06:43:37;12.80;99.90
65036;DHT22;51603;49.300;8.880;2023-05-15T06:46:03;12.90;99.90
65036;DHT22;51603;49.300;8.880;2023-05-15T06:48:29;13.00;99.90
65036;DHT22;51603;49.300;8.880;2023-05-15T06:50:54;13.10;99.90
65036;DHT22;51603;49.300;8.880;2023-05-15T06:53:20;13.20;99.90
65036;DHT22;51603;49.300;8.880;2023-05-15T06:55:45;13.30;99.90
65036;DHT22;51603;49.300;8.880;2023-05-15T06:58:11;13.40;99.90
65036;DHT22;51603;49.300;8.880;2023-05-15T07:00:37;13.50;99.90
65036;DHT22;51603;49.300;8.880;2023-05-15T07:03:02;13.60;99.90
65036;DHT22;51603;49.300;8.880;2023-05-15T07:05:28;13.70;99.90
65036;DHT22;51603;49.300;8.880;2023-05-15T07:07:53;13.80;99.90
65036;DHT22;51603;49.300;8.880;2023-05-15T07:10:19;13.80;99.90
65036;DHT22;51603;49.300;8.880;2023-05-15T07:12:45;13.80;99.90
65036;DHT22;51603;49.300;8.880;2023-05-15T07:15:10;13.90;99.90
65036;DHT22;51603;49.300;8.880;2023-05-15T07:17:36;14.00;99.90
65036;DHT22;51603;49.300;8.880;2023-05-15T07:20:02;14.10;99.90
65036;DHT22;51603;49.300;8.880;2023-05-15T07:22:30;14.10;99.90
65036;DHT22;51603;49.300;8.880;2023-05-15T07:24:56;14.20;99.90
65036;DHT22;51603;49.300;8.880;2023-05-15T07:27:21;14.30;99.90
65036;DHT22;51603;49.300;8.880;2023-05-15T07:29:47;14.40;99.90
65036;DHT22;51603;49.300;8.880;2023-05-15T07:32:12;14.50;99.90
65036;DHT22;51603;49.300;8.880;2023-05-15T07:34:38;14.60;99.90
65036;DHT22;51603;49.300;8.880;2023-05-15T07:37:04;14.50;99.90
65036;DHT22;51603;49.300;8.880;2023-05-15T07:39:29;14.50;99.90
65036;DHT22;51603;49.300;8.880;2023-05-15T07:41:55;14.50;99.90
65036;DHT22;51603;49.300;8.880;2023-05-15T07:44:20;14.40;99.90
65036;DHT22;51603;49.300;8.880;2023-05-15T07:46:46;14.40;99.90
65036;DHT22;51603;49.300;8.880;2023-05-15T07:49:11;14.50;99.90
65036;DHT22;51603;49.300;8.880;2023-05-15T07:51:37;14.50;99.90
65036;DHT22;51603;49.300;8.880;2023-05-15T07:54:03;14.60;99.90
65036;DHT22;51603;49.300;8.880;2023-05-15T07:56:29;14.70;99.90
65036;DHT22;51603;49.300;8.880;2023-05-15T07:58:54;14.80;99.90
65036;DHT22;51603;49.300;8.880;2023-05-15T08:01:20;14.80;99.90
65036;DHT22;51603;49.300;8.880;2023-05-15T08:03:45;14.80;99.90
65036;DHT22;51603;49.300;8.880;2023-05-15T08:06:11;14.90;99.90
65036;DHT22;51603;49.300;8.880;2023-05-15T08:08:37;15.00;99.90
65036;DHT22;51603;49.300;8.880;2023-05-15T08:11:02;15.10;99.90
65036;DHT22;51603;49.300;8.880;2023-05-15T08:13:28;15.10;99.90
65036;DHT22;51603;49.300;8.880;2023-05-15T08:15:53;15.20;99.90
65036;DHT22;51603;49.300;8.880;2023-05-15T08:18:19;15.20;99.90
65036;DHT22;51603;49.300;8.880;2023-05-15T08:20:44;15.30;99.90
65036;DHT22;51603;49.300;8.880;2023-05-15T08:23:10;15.40;99.90
65036;DHT22;51603;49.300;8.880;2023-05-15T08:25:35;15.50;99.90
65036;DHT22;51603;49.300;8.880;2023-05-15T08:28:03;15.60;99.90
65036;DHT22;51603;49.300;8.880;2023-05-15T08:30:28;15.90;99.90
65036;DHT22;51603;49.300;8.880;2023-05-15T08:32:54;16.10;99.90
65036;DHT22;51603;49.300;8.880;2023-05-15T08:35:19;16.30;99.90
65036;DHT22;51603;49.300;8.880;2023-05-15T08:37:45;16.50;99.90
65036;DHT22;51603;49.300;8.880;2023-05-15T08:40:11;16.70;99.90
65036;DHT22;51603;49.300;8.880;2023-05-15T08:42:42;16.90;99.90
65036;DHT22;51603;49.300;8.880;2023-05-15T08:45:10;16.90;99.90
65036;DHT22;51603;49.300;8.880;2023-05-15T08:47:38;16.80;99.90
65036;DHT22;51603;49.300;8.880;2023-05-15T08:50:12;16.80;99.90
65036;DHT22;51603;49.300;8.880;2023-05-15T08:52:46;16.80;99.90
65036;DHT22;51603;49.300;8.880;2023-05-15T08:55:15;17.00;99.90
65036;DHT22;51603;49.300;8.880;2023-05-15T08:57:42;17.00;99.90
65036;DHT22;51603;49.300;8.880;2023-05-15T09:00:09;17.10;99.90
65036;DHT22;51603;49.300;8.880;2023-05-15T09:02:37;17.20;99.90
65036;DHT22;51603;49.300;8.880;2023-05-15T09:05:04;17.30;99.90
65036;DHT22;51603;49.300;8.880;2023-05-15T09:07:30;17.20;99.90
65036;DHT22;51603;49.300;8.880;2023-05-15T09:09:57;17.10;99.90
65036;DHT22;51603;49.300;8.880;2023-05-15T09:12:24;17.10;99.90
65036;DHT22;51603;49.300;8.880;2023-05-15T09:14:50;17.30;99.90
65036;DHT22;51603;49.300;8.880;2023-05-15T09:17:16;17.40;99.90
65036;DHT22;51603;49.300;8.880;2023-05-15T09:19:42;17.40;99.90
65036;DHT22;51603;49.300;8.880;2023-05-15T09:22:18;17.50;99.90
65036;DHT22;51603;49.300;8.880;2023-05-15T09:24:48;17.30;99.90
65036;DHT22;51603;49.300;8.880;2023-05-15T09:27:16;17.40;99.90
65036;DHT22;51603;49.300;8.880;2023-05-15T09:29:41;17.40;99.90
65036;DHT22;51603;49.300;8.880;2023-05-15T09:32:13;17.50;99.90
65036;DHT22;51603;49.300;8.880;2023-05-15T09:34:40;17.60;99.90
65036;DHT22;51603;49.300;8.880;2023-05-15T09:37:08;17.80;99.90
65036;DHT22;51603;49.300;8.880;2023-05-15T09:39:41;17.90;99.90
65036;DHT22;51603;49.300;8.880;2023-05-15T09:42:14;17.90;99.90
65036;DHT22;51603;49.300;8.880;2023-05-15T09:44:41;18.10;99.90
65036;DHT22;51603;49.300;8.880;2023-05-15T09:47:09;18.20;99.90
65036;DHT22;51603;49.300;8.880;2023-05-15T09:49:35;18.40;99.90
65036;DHT22;51603;49.300;8.880;2023-05-15T09:52:00;18.40;99.90
65036;DHT22;51603;49.300;8.880;2023-05-15T09:54:27;18.60;99.90
65036;DHT22;51603;49.300;8.880;2023-05-15T09:56:54;18.90;99.90
65036;DHT22;51603;49.300;8.880;2023-05-15T09:59:20;18.90;99.90
65036;DHT22;51603;49.300;8.880;2023-05-15T10:01:49;18.90;99.90
65036;DHT22;51603;49.300;8.880;2023-05-15T10:04:15;18.90;99.90
65036;DHT22;51603;49.300;8.880;2023-05-15T10:06:44;19.00;99.90
65036;DHT22;51603;49.300;8.880;2023-05-15T10:09:10;19.10;99.90
65036;DHT22;51603;49.300;8.880;2023-05-15T10:11:38;18.90;99.90
65036;DHT22;51603;49.300;8.880;2023-05-15T10:14:06;18.80;99.90
65036;DHT22;51603;49.300;8.880;2023-05-15T10:16:33;18.80;99.90
65036;DHT22;51603;49.300;8.880;2023-05-15T10:19:07;18.90;98.80
65036;DHT22;51603;49.300;8.880;2023-05-15T10:21:35;19.20;99.90
65036;DHT22;51603;49.300;8.880;2023-05-15T10:24:01;19.50;99.90
65036;DHT22;51603;49.300;8.880;2023-05-15T10:26:40;19.70;97.90
65036;DHT22;51603;49.300;8.880;2023-05-15T10:29:16;19.80;97.40
65036;DHT22;51603;49.300;8.880;2023-05-15T10:31:42;19.70;98.40
65036;DHT22;51603;49.300;8.880;2023-05-15T10:34:09;19.90;97.20
65036;DHT22;51603;49.300;8.880;2023-05-15T10:36:36;20.10;97.90
65036;DHT22;51603;49.300;8.880;2023-05-15T10:39:03;20.20;97.80
65036;DHT22;51603;49.300;8.880;2023-05-15T10:41:31;20.10;96.10
65036;DHT22;51603;49.300;8.880;2023-05-15T10:43:59;20.00;95.90
65036;DHT22;51603;49.300;8.880;2023-05-15T10:46:26;20.20;94.90
65036;DHT22;51603;49.300;8.880;2023-05-15T10:48:52;20.00;95.70
65036;DHT22;51603;49.300;8.880;2023-05-15T10:51:26;20.40;95.10
65036;DHT22;51603;49.300;8.880;2023-05-15T10:53:52;20.70;91.80
65036;DHT22;51603;49.300;8.880;2023-05-15T10:56:18;20.60;85.70
65036;DHT22;51603;49.300;8.880;2023-05-15T10:58:51;20.60;82.20
65036;DHT22;51603;49.300;8.880;2023-05-15T11:04:13;20.80;88.80
65036;DHT22;51603;49.300;8.880;2023-05-15T11:06:40;20.80;84.50
65036;DHT22;51603;49.300;8.880;2023-05-15T11:14:27;21.10;83.80
65036;DHT22;51603;49.300;8.880;2023-05-15T11:22:00;21.30;78.10
65036;DHT22;51603;49.300;8.880;2023-05-15T11:24:31;21.40;83.30
65036;DHT22;51603;49.300;8.880;2023-05-15T11:27:01;21.50;74.80
65036;DHT22;51603;49.300;8.880;2023-05-15T11:29:27;21.50;80.00
65036;DHT22;51603;49.300;8.880;2023-05-15T11:31:53;21.70;71.90
65036;DHT22;51603;49.300;8.880;2023-05-15T11:34:34;21.90;73.70
65036;DHT22;51603;49.300;8.880;2023-05-15T11:37:00;21.80;74.50
65036;DHT22;51603;49.300;8.880;2023-05-15T11:39:26;21.80;82.40
65036;DHT22;51603;49.300;8.880;2023-05-15T11:41:53;21.70;81.00
65036;DHT22;51603;49.300;8.880;2023-05-15T11:44:23;21.50;83.90
65036;DHT22;51603;49.300;8.880;2023-05-15T11:46:52;21.40;90.80
65036;DHT22;51603;49.300;8.880;2023-05-15T11:49:19;21.10;84.50
65036;DHT22;51603;49.300;8.880;2023-05-15T11:51:47;20.80;86.70
65036;DHT22;51603;49.300;8.880;2023-05-15T11:54:13;20.50;89.80
65036;DHT22;51603;49.300;8.880;2023-05-15T11:56:42;20.30;88.40
65036;DHT22;51603;49.300;8.880;2023-05-15T11:59:12;20.20;91.30
65036;DHT22;51603;49.300;8.880;2023-05-15T12:01:44;20.00;91.10
65036;DHT22;51603;49.300;8.880;2023-05-15T12:04:16;19.90;87.50
65036;DHT22;51603;49.300;8.880;2023-05-15T12:06:42;19.70;90.00
65036;DHT22;51603;49.300;8.880;2023-05-15T12:09:18;19.70;89.50
65036;DHT22;51603;49.300;8.880;2023-05-15T12:11:55;19.70;90.70
65036;DHT22;51603;49.300;8.880;2023-05-15T12:14:27;19.70;91.30
65036;DHT22;51603;49.300;8.880;2023-05-15T12:16:53;19.60;90.70
65036;DHT22;51603;49.300;8.880;2023-05-15T12:19:22;19.50;91.10
65036;DHT22;51603;49.300;8.880;2023-05-15T12:21:48;19.50;89.40
65036;DHT22;51603;49.300;8.880;2023-05-15T12:24:13;19.50;90.20
65036;DHT22;51603;49.300;8.880;2023-05-15T12:26:39;19.50;92.00
65036;DHT22;51603;49.300;8.880;2023-05-15T12:29:05;19.40;90.80
65036;DHT22;51603;49.300;8.880;2023-05-15T12:31:33;19.40;88.10
65036;DHT22;51603;49.300;8.880;2023-05-15T12:34:00;19.50;90.40
65036;DHT22;51603;49.300;8.880;2023-05-15T12:36:26;19.60;92.70
65036;DHT22;51603;49.300;8.880;2023-05-15T12:38:54;19.70;93.40
65036;DHT22;51603;49.300;8.880;2023-05-15T12:41:20;19.70;91.60
65036;DHT22;51603;49.300;8.880;2023-05-15T12:43:46;19.80;90.40
65036;DHT22;51603;49.300;8.880;2023-05-15T12:46:12;19.60;91.20
65036;DHT22;51603;49.300;8.880;2023-05-15T12:48:39;19.60;90.10
65036;DHT22;51603;49.300;8.880;2023-05-15T12:51:08;19.50;89.40
65036;DHT22;51603;49.300;8.880;2023-05-15T12:53:34;19.50;89.60
65036;DHT22;51603;49.300;8.880;2023-05-15T12:55:59;19.50;89.30
65036;DHT22;51603;49.300;8.880;2023-05-15T12:58:25;19.30;88.30
65036;DHT22;51603;49.300;8.880;2023-05-15T13:00:51;19.10;87.30
65036;DHT22;51603;49.300;8.880;2023-05-15T13:03:19;19.10;90.10
65036;DHT22;51603;49.300;8.880;2023-05-15T13:05:46;19.10;90.80
65036;DHT22;51603;49.300;8.880;2023-05-15T13:08:16;19.00;90.00
65036;DHT22;51603;49.300;8.880;2023-05-15T13:10:43;19.10;91.60
65036;DHT22;51603;49.300;8.880;2023-05-15T13:13:08;19.10;92.80
65036;DHT22;51603;49.300;8.880;2023-05-15T13:15:42;19.10;90.90
65036;DHT22;51603;49.300;8.880;2023-05-15T13:18:13;19.30;93.50
65036;DHT22;51603;49.300;8.880;2023-05-15T13:20:44;19.40;92.30
65036;DHT22;51603;49.300;8.880;2023-05-15T13:23:14;19.30;89.90
65036;DHT22;51603;49.300;8.880;2023-05-15T13:25:41;19.10;90.40
65036;DHT22;51603;49.300;8.880;2023-05-15T13:28:07;18.90;90.50
65036;DHT22;51603;49.300;8.880;2023-05-15T13:30:34;18.70;91.60
65036;DHT22;51603;49.300;8.880;2023-05-15T13:33:01;18.40;92.80
65036;DHT22;51603;49.300;8.880;2023-05-15T13:35:27;18.10;96.10
65036;DHT22;51603;49.300;8.880;2023-05-15T13:37:52;17.80;97.40
65036;DHT22;51603;49.300;8.880;2023-05-15T13:40:18;17.60;99.90
65036;DHT22;51603;49.300;8.880;2023-05-15T13:42:44;17.60;99.90
65036;DHT22;51603;49.300;8.880;2023-05-15T13:45:11;17.60;99.90
65036;DHT22;51603;49.300;8.880;2023-05-15T13:47:37;17.70;99.90
65036;DHT22;51603;49.300;8.880;2023-05-15T13:50:07;18.00;99.90
65036;DHT22;51603;49.300;8.880;2023-05-15T13:52:33;18.40;99.90
65036;DHT22;51603;49.300;8.880;2023-05-15T13:54:59;19.10;99.90
65036;DHT22;51603;49.300;8.880;2023-05-15T13:57:25;19.70;99.90
65036;DHT22;51603;49.300;8.880;2023-05-15T13:59:51;20.20;99.90
65036;DHT22;51603;49.300;8.880;2023-05-15T14:02:17;20.80;99.90
65036;DHT22;51603;49.300;8.880;2023-05-15T14:04:42;21.30;98.00
65036;DHT22;51603;49.300;8.880;2023-05-15T14:07:08;21.70;94.20
65036;DHT22;51603;49.300;8.880;2023-05-15T14:09:34;22.10;94.90
65036;DHT22;51603;49.300;8.880;2023-05-15T14:11:59;22.40;91.50
65036;DHT22;51603;49.300;8.880;2023-05-15T14:14:25;22.20;91.80
65036;DHT22;51603;49.300;8.880;2023-05-15T14:16:51;22.10;87.70
65036;DHT22;51603;49.300;8.880;2023-05-15T14:19:16;21.70;84.40
65036;DHT22;51603;49.300;8.880;2023-05-15T14:21:42;21.40;87.80
65036;DHT22;51603;49.300;8.880;2023-05-15T14:24:07;21.10;90.90
65036;DHT22;51603;49.300;8.880;2023-05-15T14:26:33;21.00;90.70
65036;DHT22;51603;49.300;8.880;2023-05-15T14:28:59;20.90;88.20
65036;DHT22;51603;49.300;8.880;2023-05-15T14:31:24;20.90;90.70
65036;DHT22;51603;49.300;8.880;2023-05-15T14:33:51;20.70;84.60
65036;DHT22;51603;49.300;8.880;2023-05-15T14:36:16;20.50;90.70
65036;DHT22;51603;49.300;8.880;2023-05-15T14:38:42;20.50;88.00
65036;DHT22;51603;49.300;8.880;2023-05-15T14:41:12;20.30;91.40
65036;DHT22;51603;49.300;8.880;2023-05-15T14:43:38;20.20;92.40
65036;DHT22;51603;49.300;8.880;2023-05-15T14:46:04;20.20;92.50
65036;DHT22;51603;49.300;8.880;2023-05-15T14:48:29;20.10;91.80
65036;DHT22;51603;49.300;8.880;2023-05-15T14:50:59;20.10;92.50
65036;DHT22;51603;49.300;8.880;2023-05-15T14:53:25;20.00;90.50
65036;DHT22;51603;49.300;8.880;2023-05-15T14:55:51;20.00;93.10
65036;DHT22;51603;49.300;8.880;2023-05-15T14:58:16;20.00;93.10
65036;DHT22;51603;49.300;8.880;2023-05-15T15:00:42;20.00;94.00
65036;DHT22;51603;49.300;8.880;2023-05-15T15:03:07;20.00;91.40
65036;DHT22;51603;49.300;8.880;2023-05-15T15:05:33;20.10;93.20
65036;DHT22;51603;49.300;8.880;2023-05-15T15:08:03;20.10;91.70
65036;DHT22;51603;49.300;8.880;2023-05-15T15:10:31;20.20;93.70
65036;DHT22;51603;49.300;8.880;2023-05-15T15:12:56;20.10;90.80
65036;DHT22;51603;49.300;8.880;2023-05-15T15:15:22;20.00;91.10
65036;DHT22;51603;49.300;8.880;2023-05-15T15:17:49;19.90;93.30
65036;DHT22;51603;49.300;8.880;2023-05-15T15:20:16;20.00;92.60
65036;DHT22;51603;49.300;8.880;2023-05-15T15:22:42;20.00;92.20
65036;DHT22;51603;49.300;8.880;2023-05-15T15:25:08;20.00;93.30
65036;DHT22;51603;49.300;8.880;2023-05-15T15:27:34;20.00;92.10
65036;DHT22;51603;49.300;8.880;2023-05-15T15:30:04;20.00;91.70
65036;DHT22;51603;49.300;8.880;2023-05-15T15:32:31;20.00;93.30
65036;DHT22;51603;49.300;8.880;2023-05-15T15:34:57;20.00;93.80
65036;DHT22;51603;49.300;8.880;2023-05-15T15:37:23;20.00;92.80
65036;DHT22;51603;49.300;8.880;2023-05-15T15:39:48;20.10;90.70
65036;DHT22;51603;49.300;8.880;2023-05-15T15:42:14;20.00;94.40
65036;DHT22;51603;49.300;8.880;2023-05-15T15:44:41;19.90;93.40
65036;DHT22;51603;49.300;8.880;2023-05-15T15:47:06;19.80;90.80
65036;DHT22;51603;49.300;8.880;2023-05-15T15:49:32;19.60;92.30
65036;DHT22;51603;49.300;8.880;2023-05-15T15:51:57;19.60;92.70
65036;DHT22;51603;49.300;8.880;2023-05-15T15:54:23;19.50;90.30